sensor_id;sensor_type;location;lat;lon;timestamp;P1;durP1;ratioP1;P2;durP2;ratioP2
42834;SDS011;29335;50.526;30.458;2022-10-16T00:01:10;11.43;;;6.85;;
42834;SDS011;29335;50.526;30.458;2022-10-16T00:03:38;12.38;;;6.18;;
42834;SDS011;29335;50.526;30.458;2022-10-16T00:06:05;9.48;;;6.70;;
42834;SDS011;29335;50.526;30.458;2022-10-16T00:08:31;10.50;;;6.60;;
42834;SDS011;29335;50.526;30.458;2022-10-16T00:11:07;11.75;;;6.20;;
42834;SDS011;29335;50.526;30.458;2022-10-16T00:13:36;9.82;;;6.53;;
42834;SDS011;29335;50.526;30.458;2022-10-16T00:16:03;9.32;;;6.63;;
42834;SDS011;29335;50.526;30.458;2022-10-16T00:18:30;11.60;;;6.43;;
42834;SDS011;29335;50.526;30.458;2022-10-16T00:21:01;8.45;;;6.18;;
42834;SDS011;29335;50.526;30.458;2022-10-16T00:23:41;9.30;;;6.35;;
42834;SDS011;29335;50.526;30.458;2022-10-16T00:26:08;11.23;;;6.40;;
42834;SDS011;29335;50.526;30.458;2022-10-16T00:28:36;9.70;;;6.75;;
42834;SDS011;29335;50.526;30.458;2022-10-16T00:31:03;11.20;;;6.57;;
42834;SDS011;29335;50.526;30.458;2022-10-16T00:33:30;15.90;;;7.13;;
42834;SDS011;29335;50.526;30.458;2022-10-16T00:36:00;11.55;;;6.90;;
42834;SDS011;29335;50.526;30.458;2022-10-16T00:38:26;11.73;;;6.57;;
42834;SDS011;29335;50.526;30.458;2022-10-16T00:40:52;9.32;;;6.18;;
42834;SDS011;29335;50.526;30.458;2022-10-16T00:46:03;11.40;;;7.10;;
42834;SDS011;29335;50.526;30.458;2022-10-16T00:48:34;10.73;;;6.72;;
42834;SDS011;29335;50.526;30.458;2022-10-16T00:51:00;9.75;;;7.05;;
42834;SDS011;29335;50.526;30.458;2022-10-16T00:53:26;9.80;;;6.43;;
42834;SDS011;29335;50.526;30.458;2022-10-16T00:55:52;10.60;;;6.60;;
42834;SDS011;29335;50.526;30.458;2022-10-16T00:58:18;10.23;;;6.88;;
42834;SDS011;29335;50.526;30.458;2022-10-16T01:00:45;12.07;;;7.00;;
42834;SDS011;29335;50.526;30.458;2022-10-16T01:06:25;12.75;;;6.25;;
42834;SDS011;29335;50.526;30.458;2022-10-16T01:14:15;9.57;;;6.80;;
42834;SDS011;29335;50.526;30.458;2022-10-16T01:17:13;9.18;;;6.50;;
42834;SDS011;29335;50.526;30.458;2022-10-16T01:19:41;13.18;;;7.07;;
42834;SDS011;29335;50.526;30.458;2022-10-16T01:22:16;13.55;;;7.00;;
42834;SDS011;29335;50.526;30.458;2022-10-16T01:24:45;10.07;;;6.60;;
42834;SDS011;29335;50.526;30.458;2022-10-16T01:27:15;11.57;;;6.68;;
42834;SDS011;29335;50.526;30.458;2022-10-16T01:35:17;10.50;;;7.10;;
42834;SDS011;29335;50.526;30.458;2022-10-16T01:37:46;13.90;;;7.22;;
42834;SDS011;29335;50.526;30.458;2022-10-16T01:40:19;14.75;;;7.00;;
42834;SDS011;29335;50.526;30.458;2022-10-16T01:42:50;11.43;;;7.80;;
42834;SDS011;29335;50.526;30.458;2022-10-16T01:45:21;13.07;;;6.93;;
42834;SDS011;29335;50.526;30.458;2022-10-16T01:47:47;9.25;;;6.78;;
42834;SDS011;29335;50.526;30.458;2022-10-16T01:50:15;13.85;;;7.57;;
42834;SDS011;29335;50.526;30.458;2022-10-16T01:52:43;13.70;;;7.28;;
42834;SDS011;29335;50.526;30.458;2022-10-16T01:55:16;12.25;;;7.32;;
42834;SDS011;29335;50.526;30.458;2022-10-16T01:57:46;11.13;;;7.50;;
42834;SDS011;29335;50.526;30.458;2022-10-16T02:00:14;14.73;;;7.82;;
42834;SDS011;29335;50.526;30.458;2022-10-16T02:02:45;15.48;;;9.05;;
42834;SDS011;29335;50.526;30.458;2022-10-16T02:07:39;16.73;;;11.25;;
42834;SDS011;29335;50.526;30.458;2022-10-16T02:10:07;15.90;;;11.13;;
42834;SDS011;29335;50.526;30.458;2022-10-16T02:12:33;15.38;;;11.32;;
42834;SDS011;29335;50.526;30.458;2022-10-16T02:15:04;16.20;;;10.60;;
42834;SDS011;29335;50.526;30.458;2022-10-16T02:17:31;16.40;;;10.90;;
42834;SDS011;29335;50.526;30.458;2022-10-16T02:19:57;18.38;;;12.02;;
42834;SDS011;29335;50.526;30.458;2022-10-16T02:22:30;16.67;;;12.25;;
42834;SDS011;29335;50.526;30.458;2022-10-16T02:25:05;18.15;;;12.43;;
42834;SDS011;29335;50.526;30.458;2022-10-16T02:27:50;18.60;;;12.80;;
42834;SDS011;29335;50.526;30.458;2022-10-16T02:32:53;18.85;;;12.48;;
42834;SDS011;29335;50.526;30.458;2022-10-16T02:35:21;19.50;;;12.70;;
42834;SDS011;29335;50.526;30.458;2022-10-16T02:37:48;19.45;;;12.02;;
42834;SDS011;29335;50.526;30.458;2022-10-16T02:40:15;20.23;;;12.43;;
42834;SDS011;29335;50.526;30.458;2022-10-16T02:42:42;19.02;;;12.27;;
42834;SDS011;29335;50.526;30.458;2022-10-16T02:45:09;21.35;;;12.80;;
42834;SDS011;29335;50.526;30.458;2022-10-16T02:47:35;18.08;;;13.75;;
42834;SDS011;29335;50.526;30.458;2022-10-16T02:50:01;20.40;;;13.20;;
42834;SDS011;29335;50.526;30.458;2022-10-16T02:52:27;17.75;;;12.95;;
42834;SDS011;29335;50.526;30.458;2022-10-16T02:54:52;17.23;;;12.73;;
42834;SDS011;29335;50.526;30.458;2022-10-16T02:57:18;19.42;;;12.50;;
42834;SDS011;29335;50.526;30.458;2022-10-16T02:59:44;17.02;;;12.95;;
42834;SDS011;29335;50.526;30.458;2022-10-16T03:02:09;19.45;;;13.50;;
42834;SDS011;29335;50.526;30.458;2022-10-16T03:04:35;20.15;;;13.70;;
42834;SDS011;29335;50.526;30.458;2022-10-16T03:07:01;20.00;;;13.02;;
42834;SDS011;29335;50.526;30.458;2022-10-16T03:09:27;20.20;;;13.20;;
42834;SDS011;29335;50.526;30.458;2022-10-16T03:11:52;20.00;;;14.65;;
42834;SDS011;29335;50.526;30.458;2022-10-16T03:14:18;20.88;;;14.18;;
42834;SDS011;29335;50.526;30.458;2022-10-16T03:16:43;21.52;;;14.38;;
42834;SDS011;29335;50.526;30.458;2022-10-16T03:19:09;21.80;;;15.43;;
42834;SDS011;29335;50.526;30.458;2022-10-16T03:21:35;20.08;;;13.15;;
42834;SDS011;29335;50.526;30.458;2022-10-16T03:24:00;26.02;;;15.38;;
42834;SDS011;29335;50.526;30.458;2022-10-16T03:26:26;20.58;;;14.55;;
42834;SDS011;29335;50.526;30.458;2022-10-16T03:28:51;18.77;;;13.80;;
42834;SDS011;29335;50.526;30.458;2022-10-16T03:31:17;19.00;;;13.27;;
42834;SDS011;29335;50.526;30.458;2022-10-16T03:33:42;22.63;;;14.27;;
42834;SDS011;29335;50.526;30.458;2022-10-16T03:36:08;17.63;;;13.55;;
42834;SDS011;29335;50.526;30.458;2022-10-16T03:38:34;20.02;;;15.10;;
42834;SDS011;29335;50.526;30.458;2022-10-16T03:40:59;22.10;;;14.75;;
42834;SDS011;29335;50.526;30.458;2022-10-16T03:43:25;18.92;;;13.73;;
42834;SDS011;29335;50.526;30.458;2022-10-16T03:45:51;22.70;;;15.40;;
42834;SDS011;29335;50.526;30.458;2022-10-16T03:48:17;20.45;;;14.75;;
42834;SDS011;29335;50.526;30.458;2022-10-16T03:50:43;21.73;;;14.07;;
42834;SDS011;29335;50.526;30.458;2022-10-16T03:53:09;22.25;;;15.32;;
42834;SDS011;29335;50.526;30.458;2022-10-16T03:55:34;22.17;;;14.63;;
42834;SDS011;29335;50.526;30.458;2022-10-16T03:58:00;20.13;;;15.05;;
42834;SDS011;29335;50.526;30.458;2022-10-16T04:00:26;25.73;;;16.00;;
42834;SDS011;29335;50.526;30.458;2022-10-16T04:02:52;26.83;;;15.10;;
42834;SDS011;29335;50.526;30.458;2022-10-16T04:05:17;19.23;;;13.68;;
42834;SDS011;29335;50.526;30.458;2022-10-16T04:07:43;22.75;;;13.98;;
42834;SDS011;29335;50.526;30.458;2022-10-16T04:10:08;23.67;;;15.20;;
42834;SDS011;29335;50.526;30.458;2022-10-16T04:12:34;19.88;;;13.07;;
42834;SDS011;29335;50.526;30.458;2022-10-16T04:14:59;22.20;;;14.38;;
42834;SDS011;29335;50.526;30.458;2022-10-16T04:17:25;18.63;;;14.93;;
42834;SDS011;29335;50.526;30.458;2022-10-16T04:19:51;21.02;;;14.40;;
42834;SDS011;29335;50.526;30.458;2022-10-16T04:22:16;22.02;;;14.45;;
42834;SDS011;29335;50.526;30.458;2022-10-16T04:24:42;20.08;;;14.73;;
42834;SDS011;29335;50.526;30.458;2022-10-16T04:27:07;20.35;;;14.40;;
42834;SDS011;29335;50.526;30.458;2022-10-16T04:29:33;24.52;;;16.90;;
42834;SDS011;29335;50.526;30.458;2022-10-16T04:31:58;18.60;;;13.77;;
42834;SDS011;29335;50.526;30.458;2022-10-16T04:34:24;25.63;;;16.17;;
42834;SDS011;29335;50.526;30.458;2022-10-16T04:36:50;26.98;;;17.67;;
42834;SDS011;29335;50.526;30.458;2022-10-16T04:39:15;23.98;;;16.02;;
42834;SDS011;29335;50.526;30.458;2022-10-16T04:41:41;33.60;;;21.02;;
42834;SDS011;29335;50.526;30.458;2022-10-16T04:44:07;26.40;;;19.73;;
42834;SDS011;29335;50.526;30.458;2022-10-16T04:46:33;27.13;;;18.00;;
42834;SDS011;29335;50.526;30.458;2022-10-16T04:48:58;28.65;;;18.40;;
42834;SDS011;29335;50.526;30.458;2022-10-16T04:51:24;27.38;;;18.27;;
42834;SDS011;29335;50.526;30.458;2022-10-16T04:53:50;34.45;;;22.55;;
42834;SDS011;29335;50.526;30.458;2022-10-16T04:56:16;47.38;;;28.33;;
42834;SDS011;29335;50.526;30.458;2022-10-16T04:58:41;39.83;;;22.83;;
42834;SDS011;29335;50.526;30.458;2022-10-16T05:01:07;26.40;;;16.90;;
42834;SDS011;29335;50.526;30.458;2022-10-16T05:03:32;29.70;;;19.38;;
42834;SDS011;29335;50.526;30.458;2022-10-16T05:05:58;33.17;;;20.95;;
42834;SDS011;29335;50.526;30.458;2022-10-16T05:08:24;28.58;;;19.23;;
42834;SDS011;29335;50.526;30.458;2022-10-16T05:10:49;24.40;;;17.13;;
42834;SDS011;29335;50.526;30.458;2022-10-16T05:13:15;28.92;;;18.20;;
42834;SDS011;29335;50.526;30.458;2022-10-16T05:15:40;25.02;;;18.52;;
42834;SDS011;29335;50.526;30.458;2022-10-16T05:18:06;25.17;;;16.10;;
42834;SDS011;29335;50.526;30.458;2022-10-16T05:20:31;21.42;;;14.65;;
42834;SDS011;29335;50.526;30.458;2022-10-16T05:22:57;21.13;;;15.77;;
42834;SDS011;29335;50.526;30.458;2022-10-16T05:25:23;24.38;;;15.50;;
42834;SDS011;29335;50.526;30.458;2022-10-16T05:27:49;20.67;;;15.32;;
42834;SDS011;29335;50.526;30.458;2022-10-16T05:30:15;21.88;;;16.35;;
42834;SDS011;29335;50.526;30.458;2022-10-16T05:32:41;24.15;;;15.90;;
42834;SDS011;29335;50.526;30.458;2022-10-16T05:35:10;22.20;;;16.02;;
42834;SDS011;29335;50.526;30.458;2022-10-16T05:37:36;21.70;;;15.27;;
42834;SDS011;29335;50.526;30.458;2022-10-16T05:40:02;20.65;;;14.65;;
42834;SDS011;29335;50.526;30.458;2022-10-16T05:42:28;26.58;;;15.57;;
42834;SDS011;29335;50.526;30.458;2022-10-16T05:44:54;23.40;;;15.90;;
42834;SDS011;29335;50.526;30.458;2022-10-16T05:47:20;27.42;;;16.10;;
42834;SDS011;29335;50.526;30.458;2022-10-16T05:49:45;22.02;;;14.90;;
42834;SDS011;29335;50.526;30.458;2022-10-16T05:52:11;20.85;;;15.18;;
42834;SDS011;29335;50.526;30.458;2022-10-16T05:54:37;23.30;;;15.20;;
42834;SDS011;29335;50.526;30.458;2022-10-16T05:57:02;22.15;;;16.15;;
42834;SDS011;29335;50.526;30.458;2022-10-16T05:59:30;24.05;;;16.38;;
42834;SDS011;29335;50.526;30.458;2022-10-16T06:01:56;24.75;;;16.90;;
42834;SDS011;29335;50.526;30.458;2022-10-16T06:04:22;21.15;;;14.02;;
42834;SDS011;29335;50.526;30.458;2022-10-16T06:06:47;23.85;;;16.38;;
42834;SDS011;29335;50.526;30.458;2022-10-16T06:09:13;19.48;;;15.77;;
42834;SDS011;29335;50.526;30.458;2022-10-16T06:11:39;22.35;;;16.25;;
42834;SDS011;29335;50.526;30.458;2022-10-16T06:14:05;22.00;;;15.48;;
42834;SDS011;29335;50.526;30.458;2022-10-16T06:16:34;19.83;;;14.35;;
42834;SDS011;29335;50.526;30.458;2022-10-16T06:19:00;20.42;;;14.63;;
42834;SDS011;29335;50.526;30.458;2022-10-16T06:21:26;18.42;;;13.38;;
42834;SDS011;29335;50.526;30.458;2022-10-16T06:23:53;22.27;;;14.20;;
42834;SDS011;29335;50.526;30.458;2022-10-16T06:26:21;20.92;;;14.60;;
42834;SDS011;29335;50.526;30.458;2022-10-16T06:28:47;20.15;;;13.70;;
42834;SDS011;29335;50.526;30.458;2022-10-16T06:31:13;23.55;;;15.02;;
42834;SDS011;29335;50.526;30.458;2022-10-16T06:33:40;20.38;;;14.52;;
42834;SDS011;29335;50.526;30.458;2022-10-16T06:36:06;22.30;;;15.70;;
42834;SDS011;29335;50.526;30.458;2022-10-16T06:38:37;24.88;;;15.20;;
42834;SDS011;29335;50.526;30.458;2022-10-16T06:41:03;19.05;;;14.10;;
42834;SDS011;29335;50.526;30.458;2022-10-16T06:43:30;21.90;;;14.85;;
42834;SDS011;29335;50.526;30.458;2022-10-16T06:45:57;24.52;;;14.40;;
42834;SDS011;29335;50.526;30.458;2022-10-16T06:48:25;25.98;;;15.20;;
42834;SDS011;29335;50.526;30.458;2022-10-16T06:51:08;19.00;;;13.52;;
42834;SDS011;29335;50.526;30.458;2022-10-16T06:53:36;19.52;;;13.90;;
42834;SDS011;29335;50.526;30.458;2022-10-16T06:56:07;21.02;;;13.80;;
42834;SDS011;29335;50.526;30.458;2022-10-16T06:58:33;16.98;;;12.45;;
42834;SDS011;29335;50.526;30.458;2022-10-16T07:00:58;19.52;;;12.15;;
42834;SDS011;29335;50.526;30.458;2022-10-16T07:03:24;19.52;;;11.98;;
42834;SDS011;29335;50.526;30.458;2022-10-16T07:05:50;17.95;;;11.90;;
42834;SDS011;29335;50.526;30.458;2022-10-16T07:08:15;14.98;;;11.13;;
42834;SDS011;29335;50.526;30.458;2022-10-16T07:10:41;14.65;;;10.23;;
42834;SDS011;29335;50.526;30.458;2022-10-16T07:13:06;17.42;;;9.65;;
42834;SDS011;29335;50.526;30.458;2022-10-16T07:15:38;13.98;;;9.32;;
42834;SDS011;29335;50.526;30.458;2022-10-16T07:18:04;15.55;;;10.13;;
42834;SDS011;29335;50.526;30.458;2022-10-16T07:20:29;13.52;;;8.35;;
42834;SDS011;29335;50.526;30.458;2022-10-16T07:22:55;16.02;;;8.13;;
42834;SDS011;29335;50.526;30.458;2022-10-16T07:25:20;12.65;;;7.55;;
42834;SDS011;29335;50.526;30.458;2022-10-16T07:27:46;14.80;;;8.57;;
42834;SDS011;29335;50.526;30.458;2022-10-16T07:30:11;14.73;;;8.55;;
42834;SDS011;29335;50.526;30.458;2022-10-16T07:32:37;11.20;;;7.40;;
42834;SDS011;29335;50.526;30.458;2022-10-16T07:35:03;12.48;;;7.50;;
42834;SDS011;29335;50.526;30.458;2022-10-16T07:37:29;11.32;;;7.53;;
42834;SDS011;29335;50.526;30.458;2022-10-16T07:39:55;10.48;;;7.43;;
42834;SDS011;29335;50.526;30.458;2022-10-16T07:42:20;13.82;;;7.55;;
42834;SDS011;29335;50.526;30.458;2022-10-16T07:44:46;13.68;;;7.60;;
42834;SDS011;29335;50.526;30.458;2022-10-16T07:47:11;11.27;;;8.02;;
42834;SDS011;29335;50.526;30.458;2022-10-16T07:49:37;9.10;;;6.88;;
42834;SDS011;29335;50.526;30.458;2022-10-16T07:52:02;11.18;;;7.78;;
42834;SDS011;29335;50.526;30.458;2022-10-16T07:54:28;16.83;;;7.82;;
42834;SDS011;29335;50.526;30.458;2022-10-16T07:56:54;12.80;;;7.32;;
42834;SDS011;29335;50.526;30.458;2022-10-16T07:59:20;12.30;;;7.07;;
42834;SDS011;29335;50.526;30.458;2022-10-16T08:01:45;12.77;;;7.05;;
42834;SDS011;29335;50.526;30.458;2022-10-16T08:04:11;10.05;;;7.03;;
42834;SDS011;29335;50.526;30.458;2022-10-16T08:06:37;11.20;;;7.20;;
42834;SDS011;29335;50.526;30.458;2022-10-16T08:09:04;10.77;;;7.07;;
42834;SDS011;29335;50.526;30.458;2022-10-16T08:11:30;8.57;;;7.15;;
42834;SDS011;29335;50.526;30.458;2022-10-16T08:13:56;11.60;;;6.53;;
42834;SDS011;29335;50.526;30.458;2022-10-16T08:16:24;10.02;;;5.93;;
42834;SDS011;29335;50.526;30.458;2022-10-16T08:18:50;10.75;;;6.18;;
42834;SDS011;29335;50.526;30.458;2022-10-16T08:21:17;8.68;;;5.65;;
42834;SDS011;29335;50.526;30.458;2022-10-16T08:23:44;10.63;;;6.03;;
42834;SDS011;29335;50.526;30.458;2022-10-16T08:26:10;12.98;;;6.07;;
42834;SDS011;29335;50.526;30.458;2022-10-16T08:28:37;10.05;;;5.78;;
42834;SDS011;29335;50.526;30.458;2022-10-16T08:31:06;11.10;;;6.40;;
42834;SDS011;29335;50.526;30.458;2022-10-16T08:33:41;10.10;;;6.57;;
42834;SDS011;29335;50.526;30.458;2022-10-16T08:36:09;13.15;;;6.22;;
42834;SDS011;29335;50.526;30.458;2022-10-16T08:38:35;10.85;;;7.20;;
42834;SDS011;29335;50.526;30.458;2022-10-16T08:43:54;9.13;;;5.65;;
42834;SDS011;29335;50.526;30.458;2022-10-16T08:49:33;9.65;;;5.13;;
42834;SDS011;29335;50.526;30.458;2022-10-16T08:51:58;9.75;;;5.90;;
42834;SDS011;29335;50.526;30.458;2022-10-16T08:54:32;9.75;;;5.78;;
42834;SDS011;29335;50.526;30.458;2022-10-16T08:57:24;11.13;;;5.07;;
42834;SDS011;29335;50.526;30.458;2022-10-16T08:59:52;8.98;;;4.93;;
42834;SDS011;29335;50.526;30.458;2022-10-16T09:12:54;12.05;;;5.25;;
42834;SDS011;29335;50.526;30.458;2022-10-16T09:16:00;8.40;;;4.78;;
42834;SDS011;29335;50.526;30.458;2022-10-16T09:21:18;8.57;;;4.93;;
42834;SDS011;29335;50.526;30.458;2022-10-16T09:23:48;8.90;;;4.78;;
42834;SDS011;29335;50.526;30.458;2022-10-16T09:26:15;8.93;;;4.50;;
42834;SDS011;29335;50.526;30.458;2022-10-16T09:28:43;8.27;;;4.53;;
42834;SDS011;29335;50.526;30.458;2022-10-16T09:31:19;8.05;;;4.60;;
42834;SDS011;29335;50.526;30.458;2022-10-16T09:33:49;6.97;;;4.13;;
42834;SDS011;29335;50.526;30.458;2022-10-16T09:36:18;7.55;;;4.40;;
42834;SDS011;29335;50.526;30.458;2022-10-16T09:38:45;7.32;;;4.60;;
42834;SDS011;29335;50.526;30.458;2022-10-16T09:41:15;7.63;;;4.03;;
42834;SDS011;29335;50.526;30.458;2022-10-16T09:43:54;6.85;;;4.57;;
42834;SDS011;29335;50.526;30.458;2022-10-16T09:46:26;7.25;;;4.43;;
42834;SDS011;29335;50.526;30.458;2022-10-16T09:49:00;7.53;;;3.10;;
42834;SDS011;29335;50.526;30.458;2022-10-16T09:51:32;10.13;;;3.90;;
42834;SDS011;29335;50.526;30.458;2022-10-16T09:54:02;8.60;;;5.18;;
42834;SDS011;29335;50.526;30.458;2022-10-16T09:56:42;7.60;;;5.35;;
42834;SDS011;29335;50.526;30.458;2022-10-16T09:59:12;7.85;;;5.40;;
42834;SDS011;29335;50.526;30.458;2022-10-16T10:04:06;6.90;;;5.63;;
42834;SDS011;29335;50.526;30.458;2022-10-16T10:06:33;7.80;;;5.43;;
42834;SDS011;29335;50.526;30.458;2022-10-16T10:09:15;9.38;;;5.78;;
42834;SDS011;29335;50.526;30.458;2022-10-16T10:14:38;10.65;;;5.93;;
42834;SDS011;29335;50.526;30.458;2022-10-16T10:19:47;8.93;;;6.43;;
42834;SDS011;29335;50.526;30.458;2022-10-16T10:25:12;7.53;;;5.07;;
42834;SDS011;29335;50.526;30.458;2022-10-16T10:33:12;7.03;;;5.28;;
42834;SDS011;29335;50.526;30.458;2022-10-16T10:38:44;7.72;;;5.40;;
42834;SDS011;29335;50.526;30.458;2022-10-16T10:44:10;8.23;;;5.10;;
42834;SDS011;29335;50.526;30.458;2022-10-16T10:46:51;9.00;;;5.05;;
42834;SDS011;29335;50.526;30.458;2022-10-16T10:49:57;6.72;;;4.50;;
42834;SDS011;29335;50.526;30.458;2022-10-16T10:52:34;7.95;;;4.80;;
42834;SDS011;29335;50.526;30.458;2022-10-16T11:01:08;8.93;;;5.05;;
42834;SDS011;29335;50.526;30.458;2022-10-16T11:03:57;7.90;;;5.50;;
42834;SDS011;29335;50.526;30.458;2022-10-16T11:06:59;7.72;;;4.78;;
42834;SDS011;29335;50.526;30.458;2022-10-16T11:09:56;8.93;;;4.53;;
42834;SDS011;29335;50.526;30.458;2022-10-16T11:12:31;7.05;;;5.35;;
42834;SDS011;29335;50.526;30.458;2022-10-16T11:15:14;7.68;;;4.65;;
42834;SDS011;29335;50.526;30.458;2022-10-16T11:20:54;8.77;;;5.05;;
42834;SDS011;29335;50.526;30.458;2022-10-16T11:23:30;9.20;;;4.57;;
42834;SDS011;29335;50.526;30.458;2022-10-16T11:26:08;8.80;;;4.68;;
42834;SDS011;29335;50.526;30.458;2022-10-16T11:28:43;8.18;;;4.32;;
42834;SDS011;29335;50.526;30.458;2022-10-16T11:33:44;11.52;;;4.70;;
42834;SDS011;29335;50.526;30.458;2022-10-16T11:36:49;9.50;;;4.32;;
42834;SDS011;29335;50.526;30.458;2022-10-16T11:39:23;7.37;;;4.93;;
42834;SDS011;29335;50.526;30.458;2022-10-16T11:44:38;9.40;;;4.68;;
42834;SDS011;29335;50.526;30.458;2022-10-16T11:50:01;6.60;;;3.22;;
42834;SDS011;29335;50.526;30.458;2022-10-16T11:52:43;7.45;;;2.97;;
42834;SDS011;29335;50.526;30.458;2022-10-16T11:55:39;7.72;;;3.72;;
42834;SDS011;29335;50.526;30.458;2022-10-16T12:00:56;10.88;;;3.33;;
42834;SDS011;29335;50.526;30.458;2022-10-16T12:03:44;5.90;;;3.35;;
42834;SDS011;29335;50.526;30.458;2022-10-16T12:09:30;7.70;;;3.47;;
42834;SDS011;29335;50.526;30.458;2022-10-16T12:11:58;6.28;;;3.50;;
42834;SDS011;29335;50.526;30.458;2022-10-16T12:17:22;7.25;;;3.65;;
42834;SDS011;29335;50.526;30.458;2022-10-16T12:19:56;6.60;;;3.70;;
42834;SDS011;29335;50.526;30.458;2022-10-16T12:22:24;8.90;;;3.50;;
42834;SDS011;29335;50.526;30.458;2022-10-16T12:24:54;10.75;;;3.38;;
42834;SDS011;29335;50.526;30.458;2022-10-16T12:27:31;11.02;;;3.80;;
42834;SDS011;29335;50.526;30.458;2022-10-16T12:29:59;10.32;;;3.92;;
42834;SDS011;29335;50.526;30.458;2022-10-16T12:32:31;8.15;;;3.83;;
42834;SDS011;29335;50.526;30.458;2022-10-16T12:37:28;10.35;;;3.78;;
42834;SDS011;29335;50.526;30.458;2022-10-16T12:39:57;11.57;;;4.07;;
42834;SDS011;29335;50.526;30.458;2022-10-16T12:44:53;9.15;;;3.97;;
42834;SDS011;29335;50.526;30.458;2022-10-16T12:49:57;8.68;;;3.75;;
42834;SDS011;29335;50.526;30.458;2022-10-16T12:52:25;9.48;;;3.90;;
42834;SDS011;29335;50.526;30.458;2022-10-16T12:55:01;6.55;;;3.78;;
42834;SDS011;29335;50.526;30.458;2022-10-16T13:00:43;9.25;;;3.70;;
42834;SDS011;29335;50.526;30.458;2022-10-16T13:06:02;6.88;;;3.42;;
42834;SDS011;29335;50.526;30.458;2022-10-16T13:18:05;13.80;;;4.30;;
42834;SDS011;29335;50.526;30.458;2022-10-16T13:25:41;11.38;;;3.90;;
42834;SDS011;29335;50.526;30.458;2022-10-16T13:28:21;11.35;;;5.40;;
42834;SDS011;29335;50.526;30.458;2022-10-16T13:30:52;10.50;;;4.63;;
42834;SDS011;29335;50.526;30.458;2022-10-16T13:36:03;14.43;;;4.60;;
42834;SDS011;29335;50.526;30.458;2022-10-16T13:38:30;10.85;;;5.00;;
42834;SDS011;29335;50.526;30.458;2022-10-16T13:40:59;7.15;;;3.60;;
42834;SDS011;29335;50.526;30.458;2022-10-16T13:46:03;9.45;;;4.22;;
42834;SDS011;29335;50.526;30.458;2022-10-16T13:48:31;8.40;;;4.47;;
42834;SDS011;29335;50.526;30.458;2022-10-16T13:50:58;8.85;;;4.47;;
42834;SDS011;29335;50.526;30.458;2022-10-16T13:53:24;13.27;;;5.00;;
42834;SDS011;29335;50.526;30.458;2022-10-16T13:55:50;7.95;;;4.65;;
42834;SDS011;29335;50.526;30.458;2022-10-16T13:58:15;8.77;;;5.03;;
42834;SDS011;29335;50.526;30.458;2022-10-16T14:00:52;10.82;;;5.15;;
42834;SDS011;29335;50.526;30.458;2022-10-16T14:03:39;7.80;;;4.47;;
42834;SDS011;29335;50.526;30.458;2022-10-16T14:06:06;10.70;;;4.55;;
42834;SDS011;29335;50.526;30.458;2022-10-16T14:08:41;9.50;;;4.10;;
42834;SDS011;29335;50.526;30.458;2022-10-16T14:11:13;9.20;;;4.78;;
42834;SDS011;29335;50.526;30.458;2022-10-16T14:13:46;11.70;;;4.78;;
42834;SDS011;29335;50.526;30.458;2022-10-16T14:16:25;9.63;;;4.65;;
42834;SDS011;29335;50.526;30.458;2022-10-16T14:18:57;8.80;;;4.73;;
42834;SDS011;29335;50.526;30.458;2022-10-16T14:21:26;9.70;;;4.22;;
42834;SDS011;29335;50.526;30.458;2022-10-16T14:23:52;6.10;;;4.07;;
42834;SDS011;29335;50.526;30.458;2022-10-16T14:26:20;10.68;;;4.95;;
42834;SDS011;29335;50.526;30.458;2022-10-16T14:28:48;11.88;;;4.53;;
42834;SDS011;29335;50.526;30.458;2022-10-16T14:31:27;11.80;;;5.20;;
42834;SDS011;29335;50.526;30.458;2022-10-16T14:33:55;8.32;;;4.03;;
42834;SDS011;29335;50.526;30.458;2022-10-16T14:36:21;9.13;;;4.18;;
42834;SDS011;29335;50.526;30.458;2022-10-16T14:38:59;11.65;;;4.18;;
42834;SDS011;29335;50.526;30.458;2022-10-16T14:41:43;9.23;;;5.03;;
42834;SDS011;29335;50.526;30.458;2022-10-16T14:44:13;12.82;;;4.95;;
42834;SDS011;29335;50.526;30.458;2022-10-16T14:46:40;8.63;;;4.50;;
42834;SDS011;29335;50.526;30.458;2022-10-16T14:51:36;11.18;;;4.90;;
42834;SDS011;29335;50.526;30.458;2022-10-16T14:54:02;8.55;;;4.57;;
42834;SDS011;29335;50.526;30.458;2022-10-16T14:56:41;11.07;;;4.82;;
42834;SDS011;29335;50.526;30.458;2022-10-16T14:59:10;7.40;;;4.47;;
42834;SDS011;29335;50.526;30.458;2022-10-16T15:01:42;8.23;;;4.57;;
42834;SDS011;29335;50.526;30.458;2022-10-16T15:04:09;8.30;;;4.60;;
42834;SDS011;29335;50.526;30.458;2022-10-16T15:06:36;13.00;;;5.13;;
42834;SDS011;29335;50.526;30.458;2022-10-16T15:09:02;12.30;;;5.32;;
42834;SDS011;29335;50.526;30.458;2022-10-16T15:11:28;13.98;;;5.30;;
42834;SDS011;29335;50.526;30.458;2022-10-16T15:13:55;13.07;;;5.32;;
42834;SDS011;29335;50.526;30.458;2022-10-16T15:16:21;10.18;;;4.93;;
42834;SDS011;29335;50.526;30.458;2022-10-16T15:18:46;9.95;;;5.05;;
42834;SDS011;29335;50.526;30.458;2022-10-16T15:21:17;12.25;;;5.22;;
42834;SDS011;29335;50.526;30.458;2022-10-16T15:23:49;9.93;;;5.68;;
42834;SDS011;29335;50.526;30.458;2022-10-16T15:26:15;14.48;;;6.63;;
42834;SDS011;29335;50.526;30.458;2022-10-16T15:28:41;16.17;;;6.40;;
42834;SDS011;29335;50.526;30.458;2022-10-16T15:31:07;11.50;;;5.85;;
42834;SDS011;29335;50.526;30.458;2022-10-16T15:33:33;9.15;;;5.65;;
42834;SDS011;29335;50.526;30.458;2022-10-16T15:36:00;12.93;;;7.50;;
42834;SDS011;29335;50.526;30.458;2022-10-16T15:38:26;16.05;;;6.53;;
42834;SDS011;29335;50.526;30.458;2022-10-16T15:40:54;14.02;;;6.05;;
42834;SDS011;29335;50.526;30.458;2022-10-16T15:43:19;13.93;;;6.47;;
42834;SDS011;29335;50.526;30.458;2022-10-16T15:45:58;11.25;;;6.25;;
42834;SDS011;29335;50.526;30.458;2022-10-16T15:48:26;12.00;;;6.72;;
42834;SDS011;29335;50.526;30.458;2022-10-16T15:50:51;14.77;;;6.60;;
42834;SDS011;29335;50.526;30.458;2022-10-16T15:53:17;15.70;;;7.82;;
42834;SDS011;29335;50.526;30.458;2022-10-16T15:55:42;16.27;;;7.10;;
42834;SDS011;29335;50.526;30.458;2022-10-16T15:58:08;13.25;;;7.07;;
42834;SDS011;29335;50.526;30.458;2022-10-16T16:00:34;15.35;;;7.20;;
42834;SDS011;29335;50.526;30.458;2022-10-16T16:02:59;12.40;;;6.97;;
42834;SDS011;29335;50.526;30.458;2022-10-16T16:05:25;10.60;;;6.43;;
42834;SDS011;29335;50.526;30.458;2022-10-16T16:07:52;12.43;;;6.82;;
42834;SDS011;29335;50.526;30.458;2022-10-16T16:10:18;13.55;;;6.25;;
42834;SDS011;29335;50.526;30.458;2022-10-16T16:12:46;17.27;;;7.80;;
42834;SDS011;29335;50.526;30.458;2022-10-16T16:17:46;10.95;;;6.03;;
42834;SDS011;29335;50.526;30.458;2022-10-16T16:20:13;15.38;;;7.65;;
42834;SDS011;29335;50.526;30.458;2022-10-16T16:22:39;15.35;;;7.70;;
42834;SDS011;29335;50.526;30.458;2022-10-16T16:25:05;17.77;;;9.48;;
42834;SDS011;29335;50.526;30.458;2022-10-16T16:27:31;19.45;;;9.77;;
42834;SDS011;29335;50.526;30.458;2022-10-16T16:29:59;24.38;;;9.15;;
42834;SDS011;29335;50.526;30.458;2022-10-16T16:32:26;20.20;;;9.73;;
42834;SDS011;29335;50.526;30.458;2022-10-16T16:34:51;15.85;;;10.77;;
42834;SDS011;29335;50.526;30.458;2022-10-16T16:37:17;16.48;;;9.75;;
42834;SDS011;29335;50.526;30.458;2022-10-16T16:39:42;17.20;;;8.25;;